CheckWX is a tool to help pilots better visualize weather data.  It is not intended as a substitute for an official pre-flight weather briefing.

07:01:49 UTC

KMNV METAR
Monroe County Airport
Madisonville, Tennessee, USA
Current

27 mins ago

KMNV 270635Z AUTO 00000KT 10SM SCT060 BKN070 OVC080 20/19 A3003 RMK A01
Observed
May-27 @ 06:35 UTC
Visibility
Flight Rules
VFR
Cloud Levels
  • Scattered at 6,000' AGL
  • Broken at 7,000' AGL
  • Overcast at 8,000' AGL
Temperature
20°C / 68°F
Dewpoint
19°C / 66°F
Humidity
94%
Altimeter
30.03" Hg
Pressure
1016.92 hPa
Previous

47 mins ago

KMNV 270615Z AUTO 00000KT 10SM SCT065 OVC075 19/19 A3003 RMK A01
Observed
May-27 @ 06:15 UTC
Visibility
Flight Rules
VFR
Cloud Levels
  • Scattered at 6,500' AGL
  • Overcast at 7,500' AGL
Temperature
19°C / 66°F
Dewpoint
19°C / 66°F
Humidity
100%
Altimeter
30.03" Hg
Pressure
1016.92 hPa
Previous

1 hour ago

KMNV 270555Z AUTO 00000KT 10SM BKN060 BKN070 OVC080 20/19 A3003 RMK A01
Observed
May-27 @ 05:55 UTC
Visibility
Flight Rules
VFR
Cloud Levels
  • Broken at 6,000' AGL
  • Broken at 7,000' AGL
  • Overcast at 8,000' AGL
Temperature
20°C / 68°F
Dewpoint
19°C / 66°F
Humidity
94%
Altimeter
30.03" Hg
Pressure
1016.92 hPa